Time;durP1;ratioP1;P1;durP2;ratioP2;P2;SDS_P1;SDS_P2;PMS_P1;PMS_P2;Temp;Humidity;BMP_temperature;BMP_pressure;BME280_temperature;BME280_humidity;BME280_pressure;Samples;Min_cycle;Max_cycle;Signal;HPM_P1;HPM_P2
2022/03/15 00:02:05;;;;;;;36.58;12.13;;;;;;;3.43;93.75;100548.38;5047729;28;20553;-52
2022/03/15 00:04:30;;;;;;;41.08;15.23;;;;;;;3.28;91.54;100544.72;5054235;28;20029;-53
2022/03/15 00:06:56;;;;;;;75.72;18.77;;;;;;;3.19;91.94;100542.03;5053558;28;20032;-51
2022/03/15 00:09:22;;;;;;;40.50;12.30;;;;;;;3.28;94.51;100545.53;5047830;28;20437;-51
2022/03/15 00:11:47;;;;;;;25.80;10.30;;;;;;;3.21;94.76;100544.53;5047126;28;20035;-53
2022/03/15 00:14:16;;;;;;;30.38;11.00;;;;;;;3.11;93.68;100543.84;5038641;28;20496;-54
2022/03/15 00:16:42;;;;;;;16.23;6.28;;;;;;;3.18;94.37;100535.09;5052543;28;20021;-53
2022/03/15 00:19:07;;;;;;;20.75;7.35;;;;;;;3.32;94.53;100540.72;5047396;28;20108;-54
2022/03/15 00:24:08;;;;;;;21.30;7.50;;;;;;;3.25;93.32;100535.28;5490958;22;20446;-50
2022/03/15 00:26:35;;;;;;;19.63;6.25;;;;;;;3.38;93.15;100532.16;4995802;28;20081;-50
2022/03/15 00:29:00;;;;;;;18.13;7.18;;;;;;;3.28;91.49;100534.13;4987875;28;20050;-50
2022/03/15 00:31:26;;;;;;;15.38;6.57;;;;;;;3.21;91.85;100534.75;5003896;28;20419;-52
2022/03/15 00:33:51;;;;;;;15.48;6.93;;;;;;;3.28;92.61;100539.44;4990291;28;20096;-51
2022/03/15 00:36:17;;;;;;;14.50;6.05;;;;;;;3.02;92.31;100532.38;4996481;28;20035;-51
2022/03/15 00:38:42;;;;;;;14.35;5.88;;;;;;;2.99;92.79;100543.31;4992756;28;20038;-51
2022/03/15 00:41:09;;;;;;;15.70;6.68;;;;;;;3.01;92.64;100539.50;4996610;28;20045;-51
2022/03/15 00:43:34;;;;;;;22.48;7.13;;;;;;;3.11;93.23;100534.06;5008930;28;20490;-51
2022/03/15 00:46:00;;;;;;;17.13;7.32;;;;;;;2.95;93.03;100534.06;4993356;28;20504;-52
2022/03/15 00:48:26;;;;;;;24.35;7.60;;;;;;;2.79;93.42;100532.97;5002780;28;20069;-51
2022/03/15 00:50:51;;;;;;;25.35;8.70;;;;;;;2.69;94.02;100540.22;4992599;28;20092;-50
2022/03/15 00:53:17;;;;;;;26.60;9.50;;;;;;;2.70;94.36;100541.91;4996153;28;20038;-52
2022/03/15 00:55:43;;;;;;;21.60;8.68;;;;;;;2.72;94.18;100539.94;4998905;28;20207;-51
2022/03/15 00:58:09;;;;;;;27.88;10.07;;;;;;;2.72;94.12;100541.72;5008637;28;20041;-52
2022/03/15 01:00:35;;;;;;;20.38;10.40;;;;;;;2.69;94.20;100540.22;4992003;28;20451;-54
2022/03/15 01:03:02;;;;;;;19.30;9.30;;;;;;;2.62;94.19;100541.00;4993262;28;20035;-52
2022/03/15 01:05:27;;;;;;;24.05;8.80;;;;;;;2.52;95.31;100538.47;4992445;28;20034;-54
2022/03/15 01:07:53;;;;;;;32.13;10.25;;;;;;;2.53;95.80;100534.88;5000904;28;20157;-54
2022/03/15 01:10:19;;;;;;;25.05;9.88;;;;;;;2.60;96.11;100530.59;4994134;28;20035;-52
2022/03/15 01:12:44;;;;;;;34.22;11.15;;;;;;;2.74;95.70;100527.34;4993042;28;20038;-54
2022/03/15 01:15:10;;;;;;;34.25;11.55;;;;;;;3.07;98.09;100526.59;4992361;28;20038;-52
2022/03/15 01:17:35;;;;;;;32.80;11.20;;;;;;;2.92;95.43;100531.69;4998446;28;20033;-52
2022/03/15 01:20:02;;;;;;;26.40;10.65;;;;;;;2.95;96.42;100528.75;4993385;28;20034;-54
2022/03/15 01:22:28;;;;;;;31.30;11.77;;;;;;;2.73;94.94;100530.97;4996185;28;20431;-49
2022/03/15 01:24:53;;;;;;;29.02;10.05;;;;;;;2.80;95.95;100533.84;4990931;28;20488;-51
2022/03/15 01:27:20;;;;;;;24.10;9.63;;;;;;;2.91;95.40;100519.47;4991289;28;20794;-51
2022/03/15 01:29:45;;;;;;;27.33;10.32;;;;;;;2.87;94.41;100518.97;4991846;28;20550;-51
2022/03/15 01:32:11;;;;;;;21.55;10.23;;;;;;;2.79;93.83;100525.03;4991821;28;20035;-54
2022/03/15 01:34:36;;;;;;;24.25;10.00;;;;;;;2.79;95.62;100509.16;4997754;28;20142;-53
2022/03/15 01:37:02;;;;;;;29.92;10.73;;;;;;;2.62;93.75;100506.59;4997165;28;20035;-54
2022/03/15 01:39:28;;;;;;;28.00;8.98;;;;;;;2.53;94.57;100497.81;4992094;28;20046;-50
2022/03/15 01:41:54;;;;;;;33.83;10.20;;;;;;;2.41;95.37;100493.78;4997015;28;20121;-52
2022/03/15 01:44:21;;;;;;;22.42;9.73;;;;;;;2.48;96.08;100500.13;4995961;28;20034;-52
2022/03/15 01:46:47;;;;;;;26.08;9.32;;;;;;;2.41;95.92;100504.38;4997023;28;20026;-54
2022/03/15 01:49:13;;;;;;;24.83;9.50;;;;;;;2.53;96.78;100508.41;4989089;28;20476;-52
2022/03/15 01:51:40;;;;;;;24.48;9.68;;;;;;;2.42;96.44;100503.38;4992604;28;20033;-51
2022/03/15 01:54:09;;;;;;;24.63;9.55;;;;;;;2.45;96.60;100506.56;4990213;28;20027;-50
2022/03/15 01:56:35;;;;;;;25.30;8.52;;;;;;;2.44;96.38;100506.69;4995443;28;20033;-49
2022/03/15 01:59:01;;;;;;;18.08;8.85;;;;;;;2.42;96.23;100503.38;4991296;28;20022;-50
2022/03/15 02:01:27;;;;;;;23.50;9.60;;;;;;;2.48;96.55;100505.41;4989892;28;20788;-53
2022/03/15 02:03:52;;;;;;;24.73;8.75;;;;;;;2.52;96.84;100506.72;4992444;28;20484;-51
2022/03/15 02:06:18;;;;;;;24.50;8.77;;;;;;;2.41;96.23;100494.63;4993752;28;20475;-51
2022/03/15 02:08:43;;;;;;;22.90;8.73;;;;;;;2.46;96.69;100494.13;4991212;28;20388;-53
2022/03/15 02:11:09;;;;;;;22.02;8.02;;;;;;;2.80;98.57;100494.94;4991217;28;20038;-54
2022/03/15 02:13:35;;;;;;;21.30;8.05;;;;;;;2.72;96.75;100491.41;4993061;28;20031;-54
2022/03/15 02:16:00;;;;;;;17.83;7.75;;;;;;;2.64;95.33;100500.16;4995506;28;20041;-53
2022/03/15 02:18:27;;;;;;;24.42;9.27;;;;;;;2.53;96.22;100488.06;4991511;28;20044;-53
2022/03/15 02:20:55;;;;;;;19.23;9.43;;;;;;;2.46;95.55;100486.19;4991377;28;20022;-53
2022/03/15 02:23:20;;;;;;;35.47;10.85;;;;;;;2.32;96.90;100482.31;4996943;28;20038;-54
2022/03/15 02:25:46;;;;;;;27.40;10.98;;;;;;;2.35;97.34;100474.09;4999244;28;20073;-53
2022/03/15 07:18:31;;;;;;;16.92;10.00;;;;;;;3.81;93.78;100318.00;4993536;28;20108;-53
2022/03/15 07:20:57;;;;;;;20.67;9.70;;;;;;;3.82;93.25;100319.66;4990957;28;20088;-53
2022/03/15 07:23:22;;;;;;;22.10;9.88;;;;;;;3.93;93.10;100308.69;4988901;28;20528;-52
2022/03/15 07:25:48;;;;;;;23.08;10.60;;;;;;;3.96;93.14;100313.63;4995061;28;20029;-54
2022/03/15 07:28:14;;;;;;;23.73;9.93;;;;;;;4.07;93.19;100318.56;4994227;28;20034;-54
2022/03/15 07:30:39;;;;;;;20.48;9.20;;;;;;;4.05;92.96;100312.59;4996076;28;20035;-54
2022/03/15 07:33:05;;;;;;;18.05;8.77;;;;;;;3.97;92.92;100310.00;4995190;28;20042;-54
2022/03/15 07:35:30;;;;;;;20.63;10.20;;;;;;;3.89;94.11;100302.06;4993129;28;20104;-54
2022/03/15 07:37:56;;;;;;;27.45;11.05;;;;;;;4.10;93.05;100299.63;4991681;28;20045;-53
2022/03/15 07:40:22;;;;;;;22.02;11.18;;;;;;;4.07;91.53;100297.34;4993357;28;20039;-53
2022/03/15 07:42:48;;;;;;;47.10;29.45;;;;;;;4.18;90.70;100288.16;4988861;28;20061;-55
2022/03/15 07:45:13;;;;;;;34.72;19.55;;;;;;;4.20;90.87;100291.47;4993961;28;20062;-53
2022/03/15 07:47:39;;;;;;;23.63;10.07;;;;;;;4.23;90.39;100290.28;4990371;28;20113;-52
2022/03/15 07:50:05;;;;;;;25.15;10.43;;;;;;;4.32;90.15;100291.91;4997757;28;20034;-53
2022/03/15 07:52:30;;;;;;;21.35;10.52;;;;;;;4.32;90.49;100283.94;4987579;28;20510;-53
2022/03/15 07:54:55;;;;;;;29.95;11.13;;;;;;;4.23;90.61;100279.66;4996027;28;20081;-51
2022/03/15 07:57:21;;;;;;;33.38;12.48;;;;;;;4.30;91.15;100277.97;4995571;28;20037;-51
2022/03/15 07:59:46;;;;;;;25.33;11.93;;;;;;;4.37;90.44;100278.91;4995643;28;20077;-52
2022/03/15 08:02:14;;;;;;;26.80;12.25;;;;;;;4.52;89.51;100279.81;4989905;28;20392;-53
2022/03/15 08:04:40;;;;;;;26.92;12.55;;;;;;;4.49;89.56;100274.84;4987103;28;20030;-52
2022/03/15 08:07:05;;;;;;;27.95;12.27;;;;;;;4.61;89.63;100277.06;4990696;28;20547;-53
2022/03/15 08:09:31;;;;;;;29.08;11.35;;;;;;;4.67;88.96;100273.72;4993205;28;20388;-54
2022/03/15 08:11:56;;;;;;;27.13;10.40;;;;;;;4.42;89.09;100273.91;4996624;28;20939;-54
2022/03/15 08:14:22;;;;;;;24.48;11.02;;;;;;;4.56;89.82;100263.50;4992306;28;20065;-54
2022/03/15 08:16:47;;;;;;;26.13;9.93;;;;;;;4.57;90.01;100265.16;4991787;28;20026;-54
2022/03/15 08:19:13;;;;;;;29.20;10.35;;;;;;;4.62;90.44;100262.78;4988854;28;20056;-53
2022/03/15 08:21:39;;;;;;;23.83;10.75;;;;;;;4.79;89.30;100269.63;4991991;28;20434;-52
2022/03/15 08:24:05;;;;;;;26.77;11.18;;;;;;;4.66;89.60;100259.59;4993959;28;20030;-53
2022/03/15 08:26:30;;;;;;;20.70;10.45;;;;;;;4.64;89.93;100261.63;4988475;28;20092;-54
2022/03/15 08:28:56;;;;;;;30.13;10.55;;;;;;;4.63;88.99;100257.31;4994988;28;20431;-53
2022/03/15 08:31:21;;;;;;;21.50;10.52;;;;;;;4.64;89.67;100252.81;5001257;28;20084;-53
2022/03/15 08:33:47;;;;;;;23.23;10.98;;;;;;;4.63;90.04;100249.34;4992543;28;20030;-52
2022/03/15 08:36:15;;;;;;;19.13;10.27;;;;;;;4.80;91.12;100260.66;4999122;28;20015;-53
2022/03/15 08:38:41;;;;;;;20.38;10.00;;;;;;;4.83;89.33;100260.28;4989712;28;20060;-51
2022/03/15 08:41:06;;;;;;;24.52;10.43;;;;;;;4.92;89.01;100248.59;4987365;28;20527;-53
2022/03/15 08:43:32;;;;;;;21.60;10.30;;;;;;;4.89;89.68;100250.78;4988903;28;20027;-55
2022/03/15 08:45:58;;;;;;;24.45;11.80;;;;;;;4.88;89.54;100246.47;4994361;28;20399;-51
2022/03/15 08:48:23;;;;;;;23.73;11.30;;;;;;;4.64;90.01;100240.38;4988803;28;20603;-55
2022/03/15 08:50:49;;;;;;;29.40;11.63;;;;;;;4.72;90.18;100244.81;4989603;28;20026;-53
2022/03/15 08:53:14;;;;;;;28.45;12.13;;;;;;;4.79;89.86;100247.53;4993331;28;20100;-53
2022/03/15 08:55:40;;;;;;;23.65;11.57;;;;;;;4.76;89.57;100238.94;4996860;28;20057;-53
2022/03/15 08:58:06;;;;;;;25.80;10.88;;;;;;;4.85;89.24;100247.66;4993964;28;20034;-53
2022/03/15 09:00:31;;;;;;;27.02;11.00;;;;;;;4.80;89.23;100235.94;4997222;28;20364;-54
2022/03/15 09:02:56;;;;;;;25.70;10.98;;;;;;;4.65;88.78;100238.56;4995711;28;20037;-52
2022/03/15 09:05:22;;;;;;;25.60;11.40;;;;;;;4.69;89.04;100232.72;5004598;28;20084;-53
2022/03/15 09:07:51;;;;;;;28.90;11.80;;;;;;;4.73;90.41;100235.81;4996447;28;20075;-52
2022/03/15 09:10:18;;;;;;;30.23;11.65;;;;;;;4.78;91.00;100230.78;4997661;28;20065;-53
2022/03/15 09:12:43;;;;;;;26.30;11.55;;;;;;;4.81;89.82;100229.59;4999081;28;20026;-54
2022/03/15 09:15:09;;;;;;;24.50;12.07;;;;;;;4.72;89.52;100232.34;4997292;28;20251;-53
2022/03/15 09:17:34;;;;;;;30.52;12.00;;;;;;;4.77;89.72;100229.16;5006671;28;20079;-53
2022/03/15 09:20:00;;;;;;;34.33;11.77;;;;;;;4.87;90.23;100229.72;4993893;28;20051;-55
2022/03/15 09:22:25;;;;;;;33.28;11.70;;;;;;;4.93;89.91;100228.16;5002432;28;20516;-56
2022/03/15 09:24:51;;;;;;;35.83;14.65;;;;;;;5.06;90.59;100227.53;5000538;28;20037;-54
2022/03/15 09:27:16;;;;;;;19.02;11.63;;;;;;;5.08;89.81;100225.53;5004872;28;20038;-54
2022/03/15 09:29:41;;;;;;;36.30;11.80;;;;;;;5.17;89.33;100217.28;4994350;28;20034;-53
2022/03/15 09:32:08;;;;;;;29.98;12.38;;;;;;;5.19;89.72;100233.88;4996950;28;20027;-52
2022/03/15 09:34:34;;;;;;;24.20;12.30;;;;;;;5.20;90.19;100224.06;4993616;28;20027;-53
2022/03/15 09:37:00;;;;;;;36.78;11.73;;;;;;;4.98;90.47;100223.94;4991018;28;20085;-55
2022/03/15 09:39:26;;;;;;;39.30;13.35;;;;;;;5.05;91.91;100225.91;4991936;28;20042;-55
2022/03/15 09:41:52;;;;;;;36.53;13.00;;;;;;;5.09;92.05;100227.16;4998444;28;20029;-55
2022/03/15 09:44:18;;;;;;;30.40;11.20;;;;;;;5.16;91.34;100217.44;4999325;28;20049;-54
2022/03/15 09:46:50;;;;;;;27.42;12.15;;;;;;;5.06;91.46;100214.25;4989848;28;20122;-52
2022/03/15 09:49:16;;;;;;;30.15;12.27;;;;;;;5.07;92.01;100218.56;5000228;28;20034;-54
2022/03/15 09:51:42;;;;;;;68.32;23.40;;;;;;;5.11;91.84;100217.19;4991477;28;20030;-52
2022/03/15 09:54:07;;;;;;;41.83;17.25;;;;;;;5.10;91.85;100218.19;5001236;28;20053;-52
2022/03/15 09:56:39;;;;;;;36.55;14.27;;;;;;;5.10;92.62;100210.22;4993003;28;20030;-52
2022/03/15 09:59:16;;;;;;;245.68;68.57;;;;;;;5.13;92.29;100212.50;4995125;28;20030;-54
2022/03/15 10:01:42;;;;;;;109.85;35.88;;;;;;;5.11;92.60;100210.03;4991137;28;20099;-51
2022/03/15 10:04:08;;;;;;;59.13;18.83;;;;;;;5.24;92.90;100208.56;5000352;28;20539;-54
2022/03/15 10:06:35;;;;;;;62.13;21.48;;;;;;;5.28;93.37;100204.53;5000114;28;20013;-51
2022/03/15 10:09:00;;;;;;;297.48;89.15;;;;;;;5.28;94.42;100200.03;4973501;28;20048;-54
2022/03/15 10:11:26;;;;;;;122.63;36.80;;;;;;;5.29;94.92;100196.38;4974466;28;20038;-53
2022/03/15 10:13:51;;;;;;;74.10;24.23;;;;;;;5.18;94.73;100195.00;4998467;28;20475;-54
2022/03/15 10:16:16;;;;;;;142.93;49.85;;;;;;;5.27;94.24;100193.09;4996460;28;20040;-53
2022/03/15 10:18:55;;;;;;;73.28;26.50;;;;;;;5.08;94.96;100183.00;4989366;28;20032;-53
2022/03/15 10:21:24;;;;;;;46.13;17.98;;;;;;;5.10;94.90;100179.16;4994359;28;20073;-54
2022/03/15 10:23:54;;;;;;;45.97;20.00;;;;;;;5.22;95.15;100179.53;4996252;28;20373;-54
2022/03/15 10:26:26;;;;;;;34.53;12.13;;;;;;;5.06;92.96;100174.38;4995915;28;20683;-54
2022/03/15 10:28:53;;;;;;;31.98;15.23;;;;;;;4.79;94.41;100168.69;5000985;28;20483;-54
2022/03/15 10:31:22;;;;;;;26.70;12.85;;;;;;;4.88;94.21;100162.28;4999370;28;20065;-53
2022/03/15 10:33:47;;;;;;;25.75;11.88;;;;;;;4.90;93.56;100165.59;5001362;28;20073;-54
2022/03/15 10:36:19;;;;;;;38.03;12.60;;;;;;;4.91;95.22;100156.59;4990565;28;20023;-54
2022/03/15 10:38:46;;;;;;;28.92;12.95;;;;;;;4.82;95.64;100152.41;4990673;28;20065;-53
2022/03/15 10:41:14;;;;;;;31.52;13.13;;;;;;;5.06;95.90;100158.44;4990260;28;20042;-53
2022/03/15 10:43:39;;;;;;;28.60;13.23;;;;;;;5.19;96.67;100150.63;4993722;28;20022;-54
2022/03/15 10:46:05;;;;;;;23.48;13.23;;;;;;;5.07;97.34;100146.81;4980533;28;20443;-54
2022/03/15 10:48:32;;;;;;;30.83;14.80;;;;;;;5.22;98.61;100147.63;4979884;28;20030;-54
2022/03/15 10:51:09;;;;;;;37.80;16.73;;;;;;;5.34;98.32;100135.53;4996369;28;20042;-54
2022/03/15 10:53:39;;;;;;;42.53;17.00;;;;;;;5.41;98.87;100135.56;4986829;28;20034;-54
2022/03/15 10:56:08;;;;;;;30.23;14.23;;;;;;;5.31;97.38;100146.50;4994346;28;20411;-53
2022/03/15 10:58:37;;;;;;;37.15;13.98;;;;;;;5.15;97.46;100138.75;4998322;28;20391;-54
2022/03/15 11:01:09;;;;;;;35.22;15.10;;;;;;;5.19;97.91;100137.34;4989933;28;20065;-54
2022/03/15 11:03:34;;;;;;;34.72;14.48;;;;;;;5.24;98.87;100135.00;4996842;28;20026;-53
2022/03/15 11:06:04;;;;;;;40.50;14.50;;;;;;;5.26;99.49;100127.63;4997291;28;20033;-53
2022/03/15 11:08:30;;;;;;;32.25;13.23;;;;;;;5.28;100.00;100122.97;4999059;28;20130;-55
2022/03/15 11:10:56;;;;;;;39.20;14.52;;;;;;;5.25;99.65;100117.19;4989880;28;20397;-54
2022/03/15 11:13:29;;;;;;;41.30;14.02;;;;;;;5.18;100.00;100111.78;4992929;28;20034;-54
2022/03/15 11:15:55;;;;;;;26.30;13.25;;;;;;;5.28;100.00;100114.16;4995079;28;20042;-54
2022/03/15 11:18:21;;;;;;;38.67;13.45;;;;;;;5.24;100.00;100105.75;5000386;28;20344;-53
2022/03/15 11:20:48;;;;;;;38.33;13.18;;;;;;;5.13;100.00;100096.41;4999976;28;20057;-54
2022/03/15 11:23:14;;;;;;;29.25;14.10;;;;;;;5.12;100.00;100089.44;4997504;28;20044;-54
2022/03/15 11:25:41;;;;;;;37.25;14.25;;;;;;;4.93;100.00;100088.19;4993124;28;20038;-54
2022/03/15 11:28:09;;;;;;;32.55;14.25;;;;;;;5.12;100.00;100088.63;4993927;28;20128;-54
2022/03/15 11:30:35;;;;;;;32.60;15.32;;;;;;;5.18;100.00;100066.63;4990954;28;20030;-54
2022/03/15 11:33:02;;;;;;;27.40;15.27;;;;;;;5.30;100.00;100080.25;4992301;28;20121;-55
2022/03/15 11:35:29;;;;;;;37.22;14.65;;;;;;;5.27;100.00;100068.16;4994333;28;20041;-54
2022/03/15 11:37:55;;;;;;;43.20;14.60;;;;;;;5.29;100.00;100058.16;4988728;28;20059;-55
2022/03/15 11:40:20;;;;;;;36.83;14.73;;;;;;;5.35;100.00;100062.72;4995327;28;20030;-54
2022/03/15 11:42:50;;;;;;;44.75;16.55;;;;;;;5.40;100.00;100060.31;4990459;28;20048;-54
2022/03/15 11:45:30;;;;;;;39.47;14.95;;;;;;;5.26;100.00;100050.53;4987691;28;20042;-55
2022/03/15 11:47:59;;;;;;;;;;;;;;;5.46;100.00;100041.97;5001547;28;20342;-55
2022/03/15 11:50:39;;;;;;;35.45;14.43;;;;;;;5.69;100.00;100033.78;4999667;28;20468;-54
2022/03/15 11:53:12;;;;;;;39.17;18.40;;;;;;;5.50;100.00;100022.78;4987569;28;20097;-54
2022/03/15 11:55:45;;;;;;;36.53;17.55;;;;;;;5.30;100.00;100006.63;4981029;28;20030;-54
2022/03/15 11:58:11;;;;;;;34.65;16.23;;;;;;;5.05;100.00;100005.34;4996917;28;20065;-54
2022/03/15 12:00:45;;;;;;;34.05;16.00;;;;;;;5.03;100.00;100002.88;4999948;28;20030;-52
2022/03/15 12:03:10;;;;;;;34.55;16.17;;;;;;;5.11;100.00;99996.63;4992326;28;20399;-55
2022/03/15 12:05:48;;;;;;;33.88;15.75;;;;;;;5.13;100.00;99983.97;4993057;28;20124;-54
2022/03/15 12:08:26;;;;;;;34.75;15.90;;;;;;;5.14;100.00;99989.09;5001129;28;20035;-54
2022/03/15 12:11:04;;;;;;;31.48;16.60;;;;;;;5.25;100.00;99968.34;4996690;28;20057;-52
2022/03/15 12:13:33;;;;;;;97.78;31.05;;;;;;;5.08;100.00;99970.44;5003234;28;20609;-54
2022/03/15 12:16:25;;;;;;;70.18;30.02;;;;;;;5.06;100.00;99967.13;4995272;28;20023;-53
2022/03/15 12:19:35;;;;;;;35.83;16.65;;;;;;;4.96;100.00;99968.25;4999513;28;20109;-54
2022/03/15 12:22:02;;;;;;;31.10;16.77;;;;;;;4.97;100.00;99951.31;4989182;28;20042;-54
2022/03/15 12:24:32;;;;;;;39.25;18.73;;;;;;;4.84;100.00;99945.88;4994049;28;20041;-55
2022/03/15 12:27:08;;;;;;;35.08;17.40;;;;;;;4.72;100.00;99944.72;4994637;28;20085;-55
2022/03/15 12:29:33;;;;;;;38.13;19.38;;;;;;;4.70;100.00;99944.06;4999466;28;20034;-54
2022/03/15 12:32:19;;;;;;;45.88;21.50;;;;;;;4.79;100.00;99945.56;4988715;28;20065;-54
2022/03/15 12:34:49;;;;;;;47.30;18.08;;;;;;;4.92;100.00;99943.09;4990448;28;20092;-53
2022/03/15 12:37:14;;;;;;;33.55;18.05;;;;;;;4.92;100.00;99939.63;4992255;28;20045;-54
2022/03/15 12:39:40;;;;;;;50.85;18.67;;;;;;;5.02;100.00;99936.63;4995194;28;20034;-54
2022/03/15 12:42:10;;;;;;;41.72;21.40;;;;;;;5.12;100.00;99942.47;4995349;28;20625;-53
2022/03/15 12:44:38;;;;;;;;;;;;;;;5.04;100.00;99953.22;4996743;28;20038;-53
2022/03/15 12:47:06;;;;;;;45.78;21.85;;;;;;;5.16;100.00;99957.00;4993533;28;19929;-55
2022/03/15 12:49:32;;;;;;;45.70;21.35;;;;;;;5.12;100.00;99940.63;4990638;28;20022;-56
2022/03/15 12:51:57;;;;;;;44.20;19.80;;;;;;;4.91;100.00;99935.28;4994667;28;20544;-56
2022/03/15 12:54:25;;;;;;;49.00;19.70;;;;;;;5.01;100.00;99935.00;4987957;28;20554;-56
2022/03/15 12:56:51;;;;;;;54.22;20.52;;;;;;;5.15;100.00;99939.44;4996399;28;20024;-56
2022/03/15 12:59:21;;;;;;;50.20;23.30;;;;;;;5.20;100.00;99945.00;4998141;28;20042;-53
2022/03/15 13:01:47;;;;;;;43.80;21.88;;;;;;;5.04;100.00;99948.75;5003913;28;20042;-56
2022/03/15 13:04:14;;;;;;;38.75;19.90;;;;;;;5.03;100.00;99941.75;4998876;28;20061;-55
2022/03/15 13:06:45;;;;;;;49.17;20.52;;;;;;;4.82;100.00;99929.28;5002552;28;20034;-56
2022/03/15 13:09:11;;;;;;;39.78;18.98;;;;;;;4.83;100.00;99930.09;4965279;28;20026;-53
2022/03/15 13:11:46;;;;;;;38.95;18.75;;;;;;;4.78;100.00;99927.19;5001408;28;20029;-54
2022/03/15 13:14:12;;;;;;;45.60;19.80;;;;;;;4.74;100.00;99921.41;4998355;28;20065;-53
2022/03/15 13:16:46;;;;;;;48.83;23.05;;;;;;;4.81;100.00;99910.88;4993542;28;20451;-52
2022/03/15 13:19:33;;;;;;;50.03;21.67;;;;;;;4.81;100.00;99905.56;4994124;28;20408;-54
2022/03/15 13:21:59;;;;;;;44.85;23.52;;;;;;;4.84;100.00;99892.75;4994631;28;20034;-54
2022/03/15 13:24:35;;;;;;;52.22;23.85;;;;;;;4.90;100.00;99905.25;5000300;28;20029;-54
2022/03/15 13:27:02;;;;;;;52.10;24.15;;;;;;;5.15;100.00;99907.53;4999550;28;20657;-53
2022/03/15 13:29:29;;;;;;;51.85;24.27;;;;;;;5.26;100.00;99908.84;4998307;28;20529;-51
2022/03/15 13:31:55;;;;;;;52.90;26.42;;;;;;;5.28;100.00;99891.69;4992259;28;20072;-52
2022/03/15 13:34:24;;;;;;;52.70;23.15;;;;;;;5.46;100.00;99893.06;4995570;28;20101;-54
2022/03/15 13:36:50;;;;;;;50.53;24.55;;;;;;;5.55;100.00;99889.25;4999760;28;20031;-53
2022/03/15 13:39:17;;;;;;;58.35;26.08;;;;;;;5.49;100.00;99892.69;4998838;28;20034;-54
2022/03/15 13:41:49;;;;;;;54.80;24.98;;;;;;;5.48;100.00;99891.06;4997175;28;20117;-54
2022/03/15 13:44:17;;;;;;;57.67;25.88;;;;;;;5.55;100.00;99887.41;4991169;28;20559;-52
2022/03/15 13:46:43;;;;;;;47.92;22.73;;;;;;;5.48;100.00;99880.41;5000350;28;20029;-54
2022/03/15 13:49:17;;;;;;;48.15;22.58;;;;;;;5.31;100.00;99879.88;5002297;28;20836;-53
2022/03/15 13:51:42;;;;;;;40.85;19.25;;;;;;;5.26;100.00;99885.75;4991444;28;20212;-54
2022/03/15 13:54:09;;;;;;;43.65;19.77;;;;;;;5.26;100.00;99872.47;4993482;28;20487;-54
2022/03/15 13:56:47;;;;;;;36.20;19.33;;;;;;;5.33;100.00;99873.34;4966051;28;20029;-54
2022/03/15 13:59:15;;;;;;;43.88;18.98;;;;;;;5.47;100.00;99878.78;4995725;28;20055;-54
2022/03/15 14:01:42;;;;;;;43.47;18.33;;;;;;;5.43;100.00;99877.50;4991482;28;20527;-55
2022/03/15 14:04:10;;;;;;;44.35;18.60;;;;;;;5.35;100.00;99881.94;4994773;28;20479;-55
2022/03/15 14:06:39;;;;;;;44.38;18.48;;;;;;;5.46;100.00;99882.44;4990267;28;20423;-53
2022/03/15 14:09:08;;;;;;;38.35;18.45;;;;;;;5.29;100.00;99877.41;4999427;28;20502;-54
2022/03/15 14:11:35;;;;;;;32.47;17.30;;;;;;;5.16;100.00;99877.28;4984268;28;20041;-54
2022/03/15 14:14:08;;;;;;;37.90;17.75;;;;;;;5.19;100.00;99871.59;4996944;28;20062;-53
2022/03/15 14:16:41;;;;;;;35.13;17.55;;;;;;;5.21;100.00;99874.88;4993223;28;20030;-55
2022/03/15 14:19:12;;;;;;;40.15;19.48;;;;;;;5.46;100.00;99872.63;4994764;28;20042;-55
2022/03/15 14:21:41;;;;;;;36.25;18.80;;;;;;;5.59;100.00;99875.41;4999399;28;20022;-53
2022/03/15 14:24:07;;;;;;;34.95;17.75;;;;;;;5.57;100.00;99863.31;4996484;28;20030;-55
2022/03/15 14:26:33;;;;;;;35.45;18.52;;;;;;;5.63;100.00;99865.19;4999377;28;20395;-54
2022/03/15 14:29:00;;;;;;;35.50;16.45;;;;;;;5.71;100.00;99867.69;5002995;28;20041;-54
2022/03/15 14:31:30;;;;;;;34.72;16.27;;;;;;;5.75;100.00;99865.47;4995802;28;20097;-53
2022/03/15 14:34:00;;;;;;;35.03;16.50;;;;;;;5.79;100.00;99867.53;4992064;28;20037;-55
2022/03/15 14:36:33;;;;;;;30.92;16.40;;;;;;;5.89;100.00;99871.66;5011182;28;20360;-54
2022/03/15 14:39:13;;;;;;;30.65;15.73;;;;;;;6.00;100.00;99865.84;4996207;28;20030;-54
2022/03/15 14:41:39;;;;;;;35.60;16.42;;;;;;;5.93;100.00;99871.09;4993341;28;20468;-54
2022/03/15 14:44:09;;;;;;;35.25;15.38;;;;;;;6.09;100.00;99866.47;4992083;28;20121;-54
2022/03/15 14:46:38;;;;;;;34.90;15.50;;;;;;;5.95;100.00;99865.63;4990743;28;20018;-54
2022/03/15 14:49:06;;;;;;;35.13;16.63;;;;;;;5.87;100.00;99858.59;4996514;28;20026;-55
2022/03/15 14:51:32;;;;;;;36.28;17.67;;;;;;;5.66;100.00;99854.13;4996928;28;20060;-54
2022/03/15 14:53:57;;;;;;;40.47;18.45;;;;;;;5.67;100.00;99855.00;4997702;28;20030;-55
2022/03/15 14:56:23;;;;;;;37.75;16.52;;;;;;;5.61;100.00;99846.75;4996157;28;20030;-54
2022/03/15 14:58:49;;;;;;;35.88;16.98;;;;;;;5.61;100.00;99837.94;4998657;28;20104;-54
2022/03/15 15:01:14;;;;;;;42.65;17.70;;;;;;;5.75;100.00;99845.00;5000258;28;20045;-54
2022/03/15 15:03:40;;;;;;;35.38;16.85;;;;;;;5.79;100.00;99853.41;4997170;28;20030;-54
2022/03/15 15:06:07;;;;;;;39.20;18.23;;;;;;;5.94;100.00;99858.63;4998569;28;20050;-52
2022/03/15 15:08:33;;;;;;;65.85;24.67;;;;;;;5.88;100.00;99854.88;5000437;28;20040;-54
2022/03/15 15:10:58;;;;;;;66.85;26.00;;;;;;;5.97;100.00;99871.56;4998075;28;20042;-52
2022/03/15 15:13:27;;;;;;;36.65;17.73;;;;;;;6.03;100.00;99878.75;4995586;28;20030;-54
2022/03/15 15:15:52;;;;;;;32.45;16.38;;;;;;;5.95;100.00;99885.06;4994979;28;20026;-53
2022/03/15 15:18:19;;;;;;;36.92;16.00;;;;;;;5.94;100.00;99890.56;4993602;28;20549;-52
2022/03/15 15:20:46;;;;;;;30.95;16.00;;;;;;;5.99;100.00;99883.66;4992703;28;20137;-52
2022/03/15 15:23:13;;;;;;;35.08;15.05;;;;;;;5.99;100.00;99878.34;4993189;28;20034;-54
2022/03/15 15:25:39;;;;;;;34.88;15.55;;;;;;;5.99;100.00;99872.16;4989912;28;20064;-54
2022/03/15 15:28:05;;;;;;;32.63;15.40;;;;;;;5.87;100.00;99863.09;4994154;28;20055;-54
2022/03/15 15:30:31;;;;;;;30.65;15.18;;;;;;;5.92;100.00;99877.44;4987166;28;20483;-54
2022/03/15 15:32:57;;;;;;;28.98;14.77;;;;;;;5.74;100.00;99877.94;5002813;28;20050;-53
2022/03/15 15:35:24;;;;;;;29.17;15.10;;;;;;;5.64;100.00;99869.47;4994434;28;20023;-54
2022/03/15 15:37:51;;;;;;;30.88;16.88;;;;;;;5.63;100.00;99863.34;4999904;28;20029;-54
2022/03/15 15:40:20;;;;;;;34.53;16.20;;;;;;;5.74;100.00;99872.63;4992069;28;20022;-54
2022/03/15 15:42:51;;;;;;;38.63;16.40;;;;;;;5.80;100.00;99882.47;4991641;28;20038;-54
2022/03/15 15:45:19;;;;;;;35.15;16.02;;;;;;;5.72;100.00;99877.31;4997543;28;20048;-55
2022/03/15 15:47:45;;;;;;;27.15;13.77;;;;;;;5.75;100.00;99884.91;4992750;28;20026;-54
2022/03/15 15:50:12;;;;;;;25.90;13.32;;;;;;;5.62;100.00;99887.47;4990765;28;20046;-55
2022/03/15 15:52:38;;;;;;;27.15;14.82;;;;;;;5.71;100.00;99886.28;4992296;28;20108;-54
2022/03/15 15:55:04;;;;;;;34.53;15.32;;;;;;;5.74;100.00;99896.56;4996405;28;20131;-54
2022/03/15 15:57:30;;;;;;;32.10;15.38;;;;;;;5.76;100.00;99899.84;4991794;28;20523;-55
2022/03/15 15:59:58;;;;;;;26.75;14.02;;;;;;;5.72;100.00;99887.94;5000011;28;20104;-54
2022/03/15 16:02:24;;;;;;;33.40;14.65;;;;;;;5.67;100.00;99889.56;4991919;28;20026;-55
2022/03/15 16:04:50;;;;;;;35.88;15.13;;;;;;;5.68;100.00;99894.66;4999774;28;20380;-55
2022/03/15 16:07:30;;;;;;;31.77;15.75;;;;;;;5.67;100.00;99900.19;4991379;28;20480;-55
2022/03/15 16:09:56;;;;;;;33.20;16.88;;;;;;;5.66;100.00;99896.69;4998904;28;20040;-54
2022/03/15 16:12:21;;;;;;;34.60;17.35;;;;;;;5.60;100.00;99905.47;4986363;28;20034;-55
2022/03/15 16:14:47;;;;;;;35.20;15.60;;;;;;;5.71;100.00;99898.78;4984263;28;20034;-54